Time;durP1;ratioP1;P1;durP2;ratioP2;P2;SDS_P1;SDS_P2;PMS_P1;PMS_P2;Temp;Humidity;BMP_temperature;BMP_pressure;BME280_temperature;BME280_humidity;BME280_pressure;Samples;Min_cycle;Max_cycle;Signal;HPM_P1;HPM_P2
2021/07/29 00:01:43;;;;;;;24.43;10.83;;;;;;;;;;793349;173;919463;-64
2021/07/29 00:04:09;;;;;;;24.33;12.77;;;;;;;;;;793156;173;919980;-65
2021/07/29 00:06:35;;;;;;;15.87;11.10;;;;;;;;;;796728;173;919305;-63
2021/07/29 00:09:00;;;;;;;26.93;11.97;;;;;;;;;;796942;175;919102;-63
2021/07/29 00:11:27;;;;;;;17.30;10.67;;;;;;;;;;788799;174;919295;-64
2021/07/29 00:13:57;;;;;;;23.47;10.30;;;;;;;;;;783828;176;919254;-64
2021/07/29 00:16:20;;;;;;;15.47;10.27;;;;;;;;;;793568;174;918629;-64
2021/07/29 00:21:16;;;;;;;14.07;10.83;;;;;;;;;;791355;174;919598;-65
2021/07/29 00:23:41;;;;;;;40.53;10.73;;;;;;;;;;798706;174;919154;-65
2021/07/29 00:26:07;;;;;;;18.33;10.40;;;;;;;;;;784857;174;1021299;-64
2021/07/29 00:28:33;;;;;;;16.10;10.80;;;;;;;;;;782880;176;918303;-64
2021/07/29 00:30:59;;;;;;;22.90;9.10;;;;;;;;;;788134;174;919063;-64
2021/07/29 00:33:25;;;;;;;17.03;9.50;;;;;;;;;;803848;174;920095;-65
2021/07/29 00:35:50;;;;;;;19.33;9.63;;;;;;;;;;780378;174;919196;-65
2021/07/29 00:38:16;;;;;;;12.17;8.73;;;;;;;;;;780684;176;919061;-65
2021/07/29 00:40:42;;;;;;;22.55;8.85;;;;;;;;;;792114;174;923825;-65
2021/07/29 00:43:08;;;;;;;15.93;9.43;;;;;;;;;;791569;174;918812;-65
2021/07/29 00:45:34;;;;;;;14.23;9.17;;;;;;;;;;798041;174;1021558;-64
2021/07/29 00:48:00;;;;;;;17.60;9.37;;;;;;;;;;799849;174;918328;-64
2021/07/29 00:50:26;;;;;;;15.43;8.50;;;;;;;;;;790935;174;921941;-65
2021/07/29 00:52:51;;;;;;;11.90;8.30;;;;;;;;;;791824;174;919583;-65
2021/07/29 00:55:17;;;;;;;12.70;8.73;;;;;;;;;;792131;173;919650;-65
2021/07/29 00:57:43;;;;;;;20.07;8.17;;;;;;;;;;778413;176;919732;-64
2021/07/29 01:00:09;;;;;;;17.00;9.40;;;;;;;;;;780510;174;919781;-65
2021/07/29 01:02:35;;;;;;;16.73;8.10;;;;;;;;;;794338;173;920105;-65
2021/07/29 01:05:01;;;;;;;18.25;7.55;;;;;;;;;;800108;173;919190;-65
2021/07/29 01:07:27;;;;;;;15.70;7.53;;;;;;;;;;792331;173;919789;-67
2021/07/29 01:09:53;;;;;;;16.55;7.68;;;;;;;;;;792300;173;1020184;-65
2021/07/29 01:12:19;;;;;;;19.93;9.03;;;;;;;;;;801847;173;918915;-65
2021/07/29 01:14:44;;;;;;;13.10;7.10;;;;;;;;;;793477;174;918786;-65
2021/07/29 01:17:10;;;;;;;17.77;8.13;;;;;;;;;;791222;175;919424;-65
2021/07/29 01:19:37;;;;;;;15.00;8.23;;;;;;;;;;800654;174;919064;-62
2021/07/29 01:22:03;;;;;;;19.40;7.50;;;;;;;;;;790976;176;919350;-65
2021/07/29 01:24:29;;;;;;;12.50;7.00;;;;;;;;;;781769;176;918600;-64
2021/07/29 01:26:54;;;;;;;15.57;7.30;;;;;;;;;;783363;176;918764;-65
2021/07/29 01:29:20;;;;;;;12.50;7.47;;;;;;;;;;798497;174;919733;-65
2021/07/29 01:31:46;;;;;;;11.57;6.97;;;;;;;;;;792988;174;936890;-64
2021/07/29 01:34:12;;;;;;;18.27;7.80;;;;;;;;;;793083;174;920657;-64
2021/07/29 01:36:38;;;;;;;13.13;8.73;;;;;;;;;;797837;174;918588;-64
2021/07/29 01:39:04;;;;;;;14.73;8.20;;;;;;;;;;795113;174;919278;-65
2021/07/29 01:41:29;;;;;;;12.70;8.57;;;;;;;;;;793279;174;920193;-65
2021/07/29 01:43:55;;;;;;;15.77;8.80;;;;;;;;;;799864;174;891443;-65
2021/07/29 01:46:21;;;;;;;14.13;9.07;;;;;;;;;;789767;174;920310;-63
2021/07/29 01:48:47;;;;;;;14.10;8.23;;;;;;;;;;791607;174;922757;-64
2021/07/29 01:51:13;;;;;;;12.23;8.40;;;;;;;;;;783772;176;618872;-65
2021/07/29 01:53:39;;;;;;;20.60;9.43;;;;;;;;;;791713;176;915366;-63
2021/07/29 01:56:07;;;;;;;18.08;10.90;;;;;;;;;;784515;174;919114;-63
2021/07/29 01:58:32;;;;;;;13.97;8.63;;;;;;;;;;791031;174;918688;-64
2021/07/29 02:00:58;;;;;;;16.90;9.23;;;;;;;;;;798444;174;918636;-63
2021/07/29 02:03:24;;;;;;;17.20;9.37;;;;;;;;;;791668;177;918769;-64
2021/07/29 02:05:50;;;;;;;14.57;8.90;;;;;;;;;;793704;174;919951;-64
2021/07/29 02:08:16;;;;;;;16.47;9.47;;;;;;;;;;799536;174;916951;-64
2021/07/29 02:10:42;;;;;;;19.70;9.50;;;;;;;;;;791324;174;1021320;-63
2021/07/29 02:13:07;;;;;;;15.57;9.30;;;;;;;;;;793165;173;919012;-63
2021/07/29 02:15:33;;;;;;;14.80;9.30;;;;;;;;;;794761;173;919167;-63
2021/07/29 02:17:59;;;;;;;13.40;9.40;;;;;;;;;;797621;177;918391;-63
2021/07/29 02:20:25;;;;;;;15.23;9.40;;;;;;;;;;793460;173;918886;-63
2021/07/29 02:22:51;;;;;;;13.62;9.48;;;;;;;;;;795667;173;918440;-63
2021/07/29 02:25:17;;;;;;;10.63;8.30;;;;;;;;;;800451;173;919414;-63
2021/07/29 02:27:42;;;;;;;18.97;10.47;;;;;;;;;;794443;173;919715;-64
2021/07/29 02:30:09;;;;;;;17.20;11.13;;;;;;;;;;794163;173;918709;-64
2021/07/29 02:32:35;;;;;;;19.73;12.40;;;;;;;;;;798769;174;918609;-65
2021/07/29 02:35:00;;;;;;;24.33;11.77;;;;;;;;;;791127;174;919695;-63
2021/07/29 02:37:26;;;;;;;20.47;11.00;;;;;;;;;;794325;174;919446;-66
2021/07/29 02:39:52;;;;;;;19.77;12.50;;;;;;;;;;794305;174;920302;-62
2021/07/29 02:42:18;;;;;;;20.93;13.47;;;;;;;;;;796950;174;919241;-63
2021/07/29 02:44:44;;;;;;;22.03;11.60;;;;;;;;;;789793;174;919031;-63
2021/07/29 02:47:10;;;;;;;27.55;14.32;;;;;;;;;;793220;174;919227;-65
2021/07/29 02:49:35;;;;;;;20.73;12.30;;;;;;;;;;800816;174;918462;-65
2021/07/29 02:52:01;;;;;;;21.10;12.93;;;;;;;;;;789193;174;920408;-66
2021/07/29 02:54:27;;;;;;;19.53;14.00;;;;;;;;;;791640;174;918785;-63
2021/07/29 02:56:53;;;;;;;17.70;13.03;;;;;;;;;;797632;174;919022;-62
2021/07/29 02:59:19;;;;;;;20.33;14.03;;;;;;;;;;791976;174;920089;-63
2021/07/29 03:01:45;;;;;;;29.10;13.90;;;;;;;;;;788898;174;1032811;-63
2021/07/29 03:04:10;;;;;;;19.27;12.88;;;;;;;;;;798097;174;919403;-63
2021/07/29 03:06:36;;;;;;;22.53;13.07;;;;;;;;;;787970;174;917867;-63
2021/07/29 03:09:02;;;;;;;21.87;12.53;;;;;;;;;;792592;174;919589;-63
2021/07/29 03:11:28;;;;;;;22.10;12.87;;;;;;;;;;783015;174;918898;-63
2021/07/29 03:13:54;;;;;;;24.13;13.63;;;;;;;;;;773520;178;919146;-63
2021/07/29 03:16:20;;;;;;;26.83;13.87;;;;;;;;;;759549;181;920357;-62
2021/07/29 03:18:46;;;;;;;27.50;14.33;;;;;;;;;;795154;174;917787;-63
2021/07/29 03:21:11;;;;;;;22.92;13.57;;;;;;;;;;794848;174;916737;-63
2021/07/29 03:23:37;;;;;;;19.33;13.63;;;;;;;;;;790738;173;1002511;-63
2021/07/29 03:26:03;;;;;;;20.83;14.57;;;;;;;;;;789738;173;921611;-64
2021/07/29 03:28:29;;;;;;;18.37;14.77;;;;;;;;;;777563;177;916944;-63
2021/07/29 03:30:55;;;;;;;21.50;13.70;;;;;;;;;;797341;173;946280;-63
2021/07/29 03:33:22;;;;;;;24.03;15.77;;;;;;;;;;795935;173;918698;-63
2021/07/29 03:35:48;;;;;;;21.97;14.93;;;;;;;;;;795468;173;919588;-63
2021/07/29 03:38:14;;;;;;;25.50;14.30;;;;;;;;;;795854;173;919021;-62
2021/07/29 03:40:40;;;;;;;28.80;13.93;;;;;;;;;;797033;174;920053;-62
2021/07/29 03:43:06;;;;;;;20.70;12.90;;;;;;;;;;793430;174;921276;-63
2021/07/29 03:45:31;;;;;;;26.13;14.40;;;;;;;;;;797131;174;918703;-63
2021/07/29 03:47:57;;;;;;;23.63;13.40;;;;;;;;;;777239;177;919032;-63
2021/07/29 03:50:23;;;;;;;27.27;14.57;;;;;;;;;;779370;176;919837;-62
2021/07/29 03:52:49;;;;;;;33.13;14.50;;;;;;;;;;785230;178;918737;-62
2021/07/29 03:55:15;;;;;;;20.27;14.23;;;;;;;;;;759231;180;913181;-63
2021/07/29 03:57:41;;;;;;;18.13;12.90;;;;;;;;;;758333;181;918959;-62
2021/07/29 04:00:07;;;;;;;28.03;14.03;;;;;;;;;;781134;178;936919;-63
2021/07/29 04:02:33;;;;;;;26.83;15.47;;;;;;;;;;763139;181;918707;-63
2021/07/29 04:04:59;;;;;;;56.87;16.87;;;;;;;;;;765269;181;918741;-65
2021/07/29 04:07:24;;;;;;;24.47;13.73;;;;;;;;;;758809;181;916769;-62
2021/07/29 04:09:50;;;;;;;22.67;16.80;;;;;;;;;;782342;178;917513;-63
2021/07/29 04:12:16;;;;;;;22.83;16.43;;;;;;;;;;759613;181;918566;-62
2021/07/29 04:14:42;;;;;;;25.60;15.00;;;;;;;;;;761360;181;919822;-62
2021/07/29 04:17:08;;;;;;;26.63;16.00;;;;;;;;;;779316;178;918263;-62
2021/07/29 04:19:34;;;;;;;24.47;16.60;;;;;;;;;;757169;181;918985;-65
2021/07/29 04:21:59;;;;;;;24.00;16.07;;;;;;;;;;760479;181;918995;-63
2021/07/29 04:24:26;;;;;;;23.10;17.50;;;;;;;;;;779664;178;919214;-64
2021/07/29 04:26:51;;;;;;;21.70;17.53;;;;;;;;;;764655;181;919160;-63
2021/07/29 04:29:17;;;;;;;27.70;17.33;;;;;;;;;;766247;181;929489;-64
2021/07/29 04:31:43;;;;;;;31.70;17.53;;;;;;;;;;759691;181;922886;-63
2021/07/29 04:34:09;;;;;;;31.13;18.10;;;;;;;;;;796240;174;919312;-63
2021/07/29 04:36:37;;;;;;;34.23;19.47;;;;;;;;;;799552;171;918446;-65
2021/07/29 04:39:04;;;;;;;34.63;19.80;;;;;;;;;;794043;173;918388;-66
2021/07/29 04:41:29;;;;;;;28.53;18.60;;;;;;;;;;798916;175;919099;-63
2021/07/29 04:43:55;;;;;;;22.77;17.50;;;;;;;;;;799253;173;918667;-63
2021/07/29 04:46:21;;;;;;;28.00;17.77;;;;;;;;;;782192;176;919599;-63
2021/07/29 04:48:47;;;;;;;31.03;19.90;;;;;;;;;;783303;177;924581;-64
2021/07/29 04:51:13;;;;;;;32.53;21.27;;;;;;;;;;795273;173;902767;-63
2021/07/29 04:53:38;;;;;;;27.63;18.70;;;;;;;;;;797718;173;918603;-65
2021/07/29 04:56:04;;;;;;;21.90;16.13;;;;;;;;;;796620;174;915654;-63
2021/07/29 04:58:30;;;;;;;25.50;15.93;;;;;;;;;;802428;174;619498;-66
2021/07/29 05:00:56;;;;;;;22.03;16.73;;;;;;;;;;799719;174;620696;-66
2021/07/29 05:03:22;;;;;;;27.40;16.30;;;;;;;;;;781880;176;919546;-64
2021/07/29 05:05:48;;;;;;;26.00;17.30;;;;;;;;;;800763;174;923218;-64
2021/07/29 05:08:14;;;;;;;24.23;18.20;;;;;;;;;;795259;174;915939;-64
2021/07/29 05:10:39;;;;;;;27.07;17.53;;;;;;;;;;795989;174;636073;-64
2021/07/29 05:13:05;;;;;;;25.90;17.80;;;;;;;;;;806509;174;619649;-65
2021/07/29 05:15:31;;;;;;;26.73;17.97;;;;;;;;;;799767;174;618098;-65
2021/07/29 05:17:57;;;;;;;23.73;17.80;;;;;;;;;;795560;174;1020927;-64
2021/07/29 05:20:23;;;;;;;23.50;16.50;;;;;;;;;;791191;174;918969;-63
2021/07/29 05:22:49;;;;;;;25.37;18.00;;;;;;;;;;792757;176;920472;-63
2021/07/29 05:25:31;;;;;;;35.43;18.20;;;;;;;;;;778468;174;919189;-64
2021/07/29 05:27:55;;;;;;;26.70;19.47;;;;;;;;;;790504;174;922007;-65
2021/07/29 05:30:21;;;;;;;23.00;15.83;;;;;;;;;;793019;174;923109;-65
2021/07/29 05:35:39;;;;;;;23.97;15.87;;;;;;;;;;722002;175;635957;-81
2021/07/29 05:38:05;;;;;;;25.53;17.37;;;;;;;;;;761982;182;624463;-80
2021/07/29 05:40:31;;;;;;;17.67;15.60;;;;;;;;;;743905;180;890351;-64
2021/07/29 05:42:57;;;;;;;20.43;15.03;;;;;;;;;;726151;192;939803;-65
2021/07/29 05:45:23;;;;;;;22.20;14.87;;;;;;;;;;738435;188;920327;-65
2021/07/29 05:47:49;;;;;;;19.23;14.93;;;;;;;;;;730615;189;919685;-64
2021/07/29 05:50:14;;;;;;;22.07;15.77;;;;;;;;;;728150;190;919708;-63
2021/07/29 05:52:40;;;;;;;21.47;14.70;;;;;;;;;;736069;192;918491;-65
2021/07/29 05:55:06;;;;;;;18.17;14.33;;;;;;;;;;725778;193;919487;-64
2021/07/29 05:57:32;;;;;;;24.57;12.93;;;;;;;;;;726462;191;919446;-64
2021/07/29 05:59:58;;;;;;;21.40;14.40;;;;;;;;;;732553;192;919573;-64
2021/07/29 06:02:24;;;;;;;16.00;12.00;;;;;;;;;;727264;192;919481;-63
2021/07/29 06:04:50;;;;;;;15.87;12.17;;;;;;;;;;726649;192;919667;-64
2021/07/29 06:07:18;;;;;;;15.00;12.57;;;;;;;;;;730347;192;920213;-62
2021/07/29 06:09:42;;;;;;;14.10;10.10;;;;;;;;;;723239;193;919602;-64
2021/07/29 06:12:08;;;;;;;15.93;12.90;;;;;;;;;;717879;190;919848;-63
2021/07/29 06:14:34;;;;;;;15.00;12.00;;;;;;;;;;727566;191;919666;-63
2021/07/29 06:17:00;;;;;;;16.93;13.87;;;;;;;;;;732155;191;919589;-63
2021/07/29 06:19:29;;;;;;;15.57;12.50;;;;;;;;;;727050;192;1020904;-64
2021/07/29 06:21:55;;;;;;;19.70;12.37;;;;;;;;;;726986;192;919542;-64
2021/07/29 06:24:20;;;;;;;18.20;13.07;;;;;;;;;;731378;192;919724;-64
2021/07/29 06:26:48;;;;;;;19.30;14.20;;;;;;;;;;728504;191;919457;-64
2021/07/29 06:29:12;;;;;;;18.03;12.13;;;;;;;;;;726274;193;919516;-64
2021/07/29 06:31:38;;;;;;;17.07;11.80;;;;;;;;;;725235;193;919881;-62
2021/07/29 06:34:04;;;;;;;14.90;11.63;;;;;;;;;;733666;189;920562;-65
2021/07/29 06:36:29;;;;;;;14.57;11.97;;;;;;;;;;720879;193;919411;-63
2021/07/29 06:38:57;;;;;;;20.77;14.00;;;;;;;;;;726882;190;950946;-66
2021/07/29 06:41:21;;;;;;;13.07;11.17;;;;;;;;;;731213;192;921351;-63
2021/07/29 06:43:47;;;;;;;14.40;11.40;;;;;;;;;;728000;192;919823;-63
2021/07/29 06:46:13;;;;;;;12.93;10.63;;;;;;;;;;726370;191;920761;-63
2021/07/29 06:48:39;;;;;;;22.77;11.70;;;;;;;;;;730588;191;916425;-63
2021/07/29 06:51:04;;;;;;;13.93;11.30;;;;;;;;;;727668;191;915732;-63
2021/07/29 06:53:30;;;;;;;27.50;12.07;;;;;;;;;;726734;192;916192;-63
2021/07/29 06:55:58;;;;;;;17.13;12.13;;;;;;;;;;730688;192;919438;-63
2021/07/29 06:58:23;;;;;;;13.07;10.63;;;;;;;;;;731228;190;920029;-63
2021/07/29 07:00:49;;;;;;;21.17;12.50;;;;;;;;;;724854;192;919810;-64
2021/07/29 07:03:15;;;;;;;13.03;11.63;;;;;;;;;;727778;192;919999;-62
2021/07/29 07:05:45;;;;;;;14.47;11.80;;;;;;;;;;732677;191;920680;-62
2021/07/29 07:08:08;;;;;;;18.07;12.50;;;;;;;;;;726879;192;918757;-62
2021/07/29 07:10:34;;;;;;;13.50;10.60;;;;;;;;;;726584;192;1021871;-63
2021/07/29 07:13:00;;;;;;;14.37;10.40;;;;;;;;;;731450;192;1021309;-62
2021/07/29 07:15:25;;;;;;;11.60;10.40;;;;;;;;;;727166;191;919247;-62
2021/07/29 07:17:51;;;;;;;10.57;9.10;;;;;;;;;;725569;192;919762;-64
2021/07/29 07:20:17;;;;;;;9.63;8.63;;;;;;;;;;731848;192;919621;-63
2021/07/29 07:22:43;;;;;;;11.52;9.80;;;;;;;;;;728988;191;920100;-63
2021/07/29 07:25:09;;;;;;;12.20;9.80;;;;;;;;;;726735;192;918704;-63
2021/07/29 07:27:35;;;;;;;13.40;9.63;;;;;;;;;;726269;192;919444;-63
2021/07/29 07:30:01;;;;;;;12.20;9.40;;;;;;;;;;731867;192;920295;-63
2021/07/29 07:32:26;;;;;;;10.37;9.20;;;;;;;;;;727675;192;918344;-62
2021/07/29 07:34:52;;;;;;;13.25;8.98;;;;;;;;;;725459;193;918893;-63
2021/07/29 07:37:18;;;;;;;10.93;9.03;;;;;;;;;;731892;191;919392;-64
2021/07/29 07:39:44;;;;;;;11.90;9.60;;;;;;;;;;726895;191;919940;-61
2021/07/29 07:42:10;;;;;;;10.17;8.67;;;;;;;;;;727763;192;919694;-64
2021/07/29 07:44:36;;;;;;;8.40;7.37;;;;;;;;;;731572;193;882164;-63
2021/07/29 07:47:02;;;;;;;9.77;7.95;;;;;;;;;;726987;192;918875;-63
2021/07/29 07:49:27;;;;;;;15.03;8.23;;;;;;;;;;727995;190;919445;-65
2021/07/29 07:51:53;;;;;;;12.00;7.37;;;;;;;;;;726086;192;919543;-63
2021/07/29 07:54:19;;;;;;;9.98;7.68;;;;;;;;;;735301;191;920169;-64
2021/07/29 07:56:45;;;;;;;9.90;7.50;;;;;;;;;;728832;192;918917;-63
2021/07/29 07:59:11;;;;;;;11.17;7.50;;;;;;;;;;725971;192;921576;-63
2021/07/29 08:01:37;;;;;;;10.23;7.00;;;;;;;;;;731206;192;919063;-63
2021/07/29 08:04:04;;;;;;;13.67;6.90;;;;;;;;;;726085;191;919268;-64
2021/07/29 08:06:29;;;;;;;9.87;6.07;;;;;;;;;;725189;191;918324;-64
2021/07/29 08:08:55;;;;;;;8.43;5.77;;;;;;;;;;730347;191;919441;-63
2021/07/29 08:11:21;;;;;;;8.23;7.33;;;;;;;;;;727196;191;929029;-64
2021/07/29 08:13:47;;;;;;;7.40;5.40;;;;;;;;;;728988;191;920320;-65
2021/07/29 08:16:14;;;;;;;11.05;6.43;;;;;;;;;;733789;191;918606;-64
2021/07/29 08:18:39;;;;;;;8.10;4.77;;;;;;;;;;736224;191;919545;-64
2021/07/29 08:21:08;;;;;;;5.83;4.37;;;;;;;;;;726949;191;918821;-64
2021/07/29 08:23:34;;;;;;;7.40;3.90;;;;;;;;;;728385;192;920183;-64
2021/07/29 08:26:00;;;;;;;10.63;4.97;;;;;;;;;;733699;190;918715;-64
2021/07/29 08:28:26;;;;;;;5.90;5.00;;;;;;;;;;726237;191;919817;-64
2021/07/29 08:30:52;;;;;;;6.50;4.60;;;;;;;;;;726832;190;919381;-63
2021/07/29 08:33:18;;;;;;;8.80;6.43;;;;;;;;;;731662;191;919083;-64
2021/07/29 08:35:43;;;;;;;10.23;6.20;;;;;;;;;;727201;189;918987;-65
2021/07/29 08:38:09;;;;;;;7.40;5.97;;;;;;;;;;726966;191;915478;-62
2021/07/29 08:40:35;;;;;;;8.20;6.00;;;;;;;;;;728266;191;916629;-62
2021/07/29 08:43:01;;;;;;;10.43;6.60;;;;;;;;;;729298;191;916130;-63
2021/07/29 08:45:27;;;;;;;10.27;6.97;;;;;;;;;;725268;191;1018905;-63
2021/07/29 08:47:52;;;;;;;8.73;6.53;;;;;;;;;;723930;192;1022352;-63
2021/07/29 08:50:18;;;;;;;10.30;6.50;;;;;;;;;;731769;192;919846;-63
2021/07/29 08:52:44;;;;;;;7.50;6.30;;;;;;;;;;723738;192;919181;-63
2021/07/29 08:55:10;;;;;;;7.43;5.90;;;;;;;;;;725949;193;919318;-62
2021/07/29 08:57:38;;;;;;;19.73;6.50;;;;;;;;;;730758;192;919547;-62
2021/07/29 09:00:02;;;;;;;7.83;5.63;;;;;;;;;;726547;192;919325;-62
2021/07/29 09:02:28;;;;;;;11.33;5.40;;;;;;;;;;726927;192;919740;-62
2021/07/29 09:05:00;;;;;;;17.10;6.73;;;;;;;;;;732669;192;1021667;-62
2021/07/29 09:07:26;;;;;;;13.13;5.87;;;;;;;;;;729499;192;919289;-62
2021/07/29 09:09:53;;;;;;;10.57;5.50;;;;;;;;;;724839;192;919661;-62
2021/07/29 09:12:18;;;;;;;7.18;6.05;;;;;;;;;;725087;193;920075;-63
2021/07/29 09:14:44;;;;;;;9.50;7.33;;;;;;;;;;728753;192;919909;-62
2021/07/29 09:17:09;;;;;;;8.83;6.17;;;;;;;;;;724916;193;1021373;-61
2021/07/29 09:19:36;;;;;;;8.60;6.87;;;;;;;;;;725941;193;920238;-62
2021/07/29 09:22:08;;;;;;;10.00;7.50;;;;;;;;;;733985;191;919113;-62
2021/07/29 09:24:34;;;;;;;22.80;8.00;;;;;;;;;;736110;190;919326;-63
2021/07/29 09:27:00;;;;;;;9.90;7.50;;;;;;;;;;730215;192;920250;-62
2021/07/29 09:29:26;;;;;;;8.83;7.20;;;;;;;;;;728175;192;919858;-62
2021/07/29 09:32:06;;;;;;;7.73;6.93;;;;;;;;;;732518;192;920145;-62
2021/07/29 09:34:38;;;;;;;7.50;6.63;;;;;;;;;;734007;192;919979;-62
2021/07/29 09:37:05;;;;;;;10.40;7.60;;;;;;;;;;730181;192;919357;-63
2021/07/29 09:39:30;;;;;;;8.83;6.50;;;;;;;;;;729041;192;919757;-63
2021/07/29 09:41:58;;;;;;;10.83;6.40;;;;;;;;;;727485;192;919521;-63
2021/07/29 09:44:43;;;;;;;9.07;7.03;;;;;;;;;;735695;189;919811;-63
2021/07/29 09:47:09;;;;;;;12.10;7.30;;;;;;;;;;731519;192;919485;-63
2021/07/29 09:49:35;;;;;;;6.90;5.83;;;;;;;;;;726101;191;919440;-63
2021/07/29 09:52:00;;;;;;;6.90;6.00;;;;;;;;;;727174;190;1021890;-62
2021/07/29 09:54:27;;;;;;;8.43;6.43;;;;;;;;;;731454;192;920447;-63
2021/07/29 09:56:52;;;;;;;8.60;6.70;;;;;;;;;;729176;191;917587;-64
2021/07/29 09:59:18;;;;;;;9.67;6.03;;;;;;;;;;726149;191;915911;-63
2021/07/29 10:01:44;;;;;;;9.00;6.53;;;;;;;;;;729978;190;919275;-61
2021/07/29 10:04:12;;;;;;;7.33;6.00;;;;;;;;;;739512;188;914457;-64
2021/07/29 10:06:38;;;;;;;8.10;6.93;;;;;;;;;;728092;192;919773;-64
2021/07/29 10:09:04;;;;;;;8.00;6.63;;;;;;;;;;726517;193;919609;-64
2021/07/29 10:11:30;;;;;;;7.43;6.03;;;;;;;;;;730491;192;1018981;-64
2021/07/29 10:13:55;;;;;;;9.13;5.87;;;;;;;;;;725605;192;920169;-65
2021/07/29 10:16:27;;;;;;;7.83;5.70;;;;;;;;;;726801;193;919173;-64
2021/07/29 10:19:08;;;;;;;6.95;5.25;;;;;;;;;;728791;192;919243;-63
2021/07/29 10:21:35;;;;;;;8.33;5.43;;;;;;;;;;734793;188;925003;-65
2021/07/29 10:24:00;;;;;;;8.77;5.77;;;;;;;;;;726031;192;920197;-64
2021/07/29 10:26:26;;;;;;;7.67;6.07;;;;;;;;;;727299;192;920060;-65
2021/07/29 10:28:51;;;;;;;6.77;5.50;;;;;;;;;;724525;193;919608;-64
2021/07/29 10:31:17;;;;;;;7.90;5.67;;;;;;;;;;730609;191;918545;-64
2021/07/29 10:33:43;;;;;;;10.70;6.30;;;;;;;;;;729084;190;920100;-65
2021/07/29 10:36:10;;;;;;;10.90;8.33;;;;;;;;;;729323;191;918840;-65
2021/07/29 10:38:47;;;;;;;8.00;6.30;;;;;;;;;;732673;191;816687;-64
2021/07/29 10:41:28;;;;;;;6.77;5.37;;;;;;;;;;733594;192;919318;-66
2021/07/29 10:43:54;;;;;;;7.70;5.60;;;;;;;;;;733210;192;918441;-65
2021/07/29 10:46:19;;;;;;;8.00;5.00;;;;;;;;;;726675;192;919192;-65
2021/07/29 10:48:52;;;;;;;7.37;6.40;;;;;;;;;;728220;191;920873;-64
2021/07/29 10:51:16;;;;;;;7.80;5.77;;;;;;;;;;732318;191;919921;-64
2021/07/29 10:53:42;;;;;;;8.93;5.60;;;;;;;;;;727802;191;919423;-64
2021/07/29 10:56:08;;;;;;;6.60;5.40;;;;;;;;;;726698;191;919445;-63
2021/07/29 10:58:38;;;;;;;10.70;5.97;;;;;;;;;;731536;191;920656;-62
2021/07/29 11:01:04;;;;;;;6.60;5.67;;;;;;;;;;740627;188;919840;-63
2021/07/29 11:03:30;;;;;;;9.00;5.87;;;;;;;;;;725442;189;919208;-63
2021/07/29 11:06:05;;;;;;;6.57;5.37;;;;;;;;;;724924;190;919152;-63
2021/07/29 11:08:21;;;;;;;9.67;5.90;;;;;;;;;;729605;193;919091;-63
2021/07/29 11:10:47;;;;;;;8.60;5.20;;;;;;;;;;727775;192;919407;-63
2021/07/29 11:13:13;;;;;;;5.70;4.70;;;;;;;;;;726255;190;919472;-67
2021/07/29 11:15:39;;;;;;;5.23;4.57;;;;;;;;;;731110;193;878573;-64
2021/07/29 11:18:08;;;;;;;6.00;5.10;;;;;;;;;;724537;192;919652;-64
2021/07/29 11:20:33;;;;;;;6.87;5.40;;;;;;;;;;726315;191;919786;-66
2021/07/29 11:22:59;;;;;;;7.60;5.43;;;;;;;;;;726953;192;920759;-63
2021/07/29 11:25:25;;;;;;;6.47;5.27;;;;;;;;;;732565;192;920328;-65
2021/07/29 11:27:51;;;;;;;5.70;4.63;;;;;;;;;;726718;192;920823;-66
2021/07/29 11:30:17;;;;;;;8.10;4.20;;;;;;;;;;728685;191;920044;-65
2021/07/29 11:32:43;;;;;;;7.17;4.97;;;;;;;;;;732083;192;920026;-67
2021/07/29 11:35:09;;;;;;;6.57;5.00;;;;;;;;;;727316;193;919535;-65
2021/07/29 11:37:36;;;;;;;7.37;5.33;;;;;;;;;;725472;192;919251;-67
2021/07/29 11:40:02;;;;;;;6.30;5.17;;;;;;;;;;732397;192;920471;-67
2021/07/29 11:42:31;;;;;;;9.83;5.23;;;;;;;;;;726072;189;919553;-64
2021/07/29 11:44:57;;;;;;;6.30;5.43;;;;;;;;;;727761;191;919367;-65
2021/07/29 11:47:25;;;;;;;7.57;5.87;;;;;;;;;;729958;190;919621;-65
2021/07/29 11:49:49;;;;;;;6.97;5.10;;;;;;;;;;733686;190;919747;-65
2021/07/29 11:52:15;;;;;;;8.73;4.40;;;;;;;;;;727234;190;919220;-67
2021/07/29 11:54:41;;;;;;;5.75;5.15;;;;;;;;;;727954;191;920094;-65
2021/07/29 11:57:06;;;;;;;6.90;4.77;;;;;;;;;;732207;191;918194;-66
2021/07/29 11:59:39;;;;;;;10.50;4.93;;;;;;;;;;725697;191;921836;-65
2021/07/29 12:02:05;;;;;;;6.23;4.87;;;;;;;;;;727508;191;919351;-66
2021/07/29 12:04:32;;;;;;;8.83;4.87;;;;;;;;;;726430;190;922907;-65
2021/07/29 12:06:56;;;;;;;8.60;5.33;;;;;;;;;;731139;192;919349;-65
2021/07/29 12:09:22;;;;;;;7.67;4.67;;;;;;;;;;727696;191;919738;-66
2021/07/29 12:11:48;;;;;;;7.03;4.87;;;;;;;;;;730309;190;920169;-65
2021/07/29 12:14:14;;;;;;;7.00;4.70;;;;;;;;;;728928;192;918500;-65
2021/07/29 12:16:40;;;;;;;5.03;4.50;;;;;;;;;;725899;190;923797;-67
2021/07/29 12:19:06;;;;;;;7.70;4.50;;;;;;;;;;726612;192;919430;-67
2021/07/29 12:21:32;;;;;;;6.40;4.82;;;;;;;;;;730218;192;918610;-65
2021/07/29 12:23:57;;;;;;;9.33;4.80;;;;;;;;;;734234;189;919670;-65
2021/07/29 12:26:23;;;;;;;6.53;4.80;;;;;;;;;;725373;192;919101;-67
2021/07/29 12:28:49;;;;;;;6.50;4.53;;;;;;;;;;726836;192;919394;-67
2021/07/29 12:31:15;;;;;;;45.00;30.60;;;;;;;;;;731128;192;920006;-67
2021/07/29 12:33:41;;;;;;;96.43;60.10;;;;;;;;;;725547;192;919615;-66
2021/07/29 12:36:07;;;;;;;27.67;16.77;;;;;;;;;;725420;191;919568;-65
2021/07/29 12:38:32;;;;;;;5.67;3.83;;;;;;;;;;730993;193;919434;-69
2021/07/29 12:40:58;;;;;;;5.90;4.73;;;;;;;;;;726652;192;919904;-67
2021/07/29 12:43:24;;;;;;;11.45;6.68;;;;;;;;;;727302;192;919305;-67
2021/07/29 12:45:50;;;;;;;5.27;4.53;;;;;;;;;;731880;192;927376;-66
2021/07/29 12:48:16;;;;;;;6.93;5.10;;;;;;;;;;726006;191;919729;-67
2021/07/29 12:50:42;;;;;;;7.00;4.10;;;;;;;;;;725182;193;919742;-66
2021/07/29 12:53:08;;;;;;;5.10;4.00;;;;;;;;;;725957;192;924739;-66
2021/07/29 12:55:37;;;;;;;11.67;8.03;;;;;;;;;;734387;190;919436;-67
2021/07/29 12:58:02;;;;;;;7.10;3.90;;;;;;;;;;730206;190;919141;-67
2021/07/29 13:00:28;;;;;;;5.63;4.37;;;;;;;;;;731582;192;919439;-65
2021/07/29 13:02:54;;;;;;;5.50;3.93;;;;;;;;;;732431;192;919039;-67
2021/07/29 13:05:20;;;;;;;6.10;3.97;;;;;;;;;;727872;192;919177;-66
2021/07/29 13:07:45;;;;;;;6.13;4.20;;;;;;;;;;727091;192;921724;-66
2021/07/29 13:10:11;;;;;;;8.90;6.30;;;;;;;;;;733079;192;917529;-66
2021/07/29 13:12:37;;;;;;;15.03;8.50;;;;;;;;;;727176;192;917647;-67
2021/07/29 13:15:03;;;;;;;10.40;5.97;;;;;;;;;;728240;190;921253;-66
2021/07/29 13:17:29;;;;;;;5.30;3.70;;;;;;;;;;728351;190;918175;-67
2021/07/29 13:19:57;;;;;;;5.00;4.00;;;;;;;;;;731387;191;922007;-67
2021/07/29 13:22:21;;;;;;;13.97;6.33;;;;;;;;;;727668;191;963430;-65
2021/07/29 13:24:47;;;;;;;7.60;4.20;;;;;;;;;;726656;190;920590;-66
2021/07/29 13:27:12;;;;;;;14.27;6.47;;;;;;;;;;731568;191;916012;-65
2021/07/29 13:29:39;;;;;;;4.93;4.13;;;;;;;;;;726393;191;959551;-66
2021/07/29 13:32:05;;;;;;;7.67;4.90;;;;;;;;;;725606;192;917032;-66
2021/07/29 13:34:31;;;;;;;7.33;4.63;;;;;;;;;;731047;193;920462;-65
2021/07/29 13:36:56;;;;;;;7.70;4.97;;;;;;;;;;728472;192;915449;-66
2021/07/29 13:39:22;;;;;;;5.73;4.30;;;;;;;;;;729560;192;920286;-69
2021/07/29 13:41:48;;;;;;;9.27;6.00;;;;;;;;;;728541;192;919523;-66
2021/07/29 13:44:20;;;;;;;38.27;6.40;;;;;;;;;;726378;191;918576;-66
2021/07/29 13:46:40;;;;;;;6.07;4.60;;;;;;;;;;721963;191;919196;-66
2021/07/29 13:49:06;;;;;;;8.07;4.23;;;;;;;;;;729844;192;920022;-65
2021/07/29 13:51:31;;;;;;;7.50;4.57;;;;;;;;;;730636;193;919502;-67
2021/07/29 13:53:57;;;;;;;7.73;4.20;;;;;;;;;;726428;192;918792;-65
2021/07/29 13:56:23;;;;;;;4.30;3.60;;;;;;;;;;726148;192;919277;-66
2021/07/29 13:58:49;;;;;;;5.70;3.40;;;;;;;;;;731627;192;918351;-67
2021/07/29 14:01:15;;;;;;;5.13;3.17;;;;;;;;;;727528;191;919441;-66
2021/07/29 14:03:41;;;;;;;4.70;3.47;;;;;;;;;;727439;192;919926;-68
2021/07/29 14:06:06;;;;;;;5.57;3.83;;;;;;;;;;728706;193;919028;-65
2021/07/29 14:08:32;;;;;;;4.17;3.73;;;;;;;;;;727651;190;920103;-68
2021/07/29 14:10:58;;;;;;;7.17;4.00;;;;;;;;;;730388;191;921614;-66
2021/07/29 14:13:24;;;;;;;4.27;3.30;;;;;;;;;;726556;191;919061;-67
2021/07/29 14:15:50;;;;;;;11.13;3.37;;;;;;;;;;733517;192;919333;-67